sensor_id;sensor_type;location;lat;lon;timestamp;P1;durP1;ratioP1;P2;durP2;ratioP2
65162;SDS011;51751;55.714;37.436;2023-08-06T00:00:40;14.00;;;5.47;;
65162;SDS011;51751;55.714;37.436;2023-08-06T00:03:06;15.05;;;5.40;;
65162;SDS011;51751;55.714;37.436;2023-08-06T00:05:32;17.23;;;7.30;;
65162;SDS011;51751;55.714;37.436;2023-08-06T00:07:58;23.50;;;7.70;;
65162;SDS011;51751;55.714;37.436;2023-08-06T00:10:24;18.60;;;8.60;;
65162;SDS011;51751;55.714;37.436;2023-08-06T00:12:50;17.65;;;7.03;;
65162;SDS011;51751;55.714;37.436;2023-08-06T00:15:16;26.92;;;10.07;;
65162;SDS011;51751;55.714;37.436;2023-08-06T00:17:42;36.63;;;12.15;;
65162;SDS011;51751;55.714;37.436;2023-08-06T00:20:08;30.30;;;9.13;;
65162;SDS011;51751;55.714;37.436;2023-08-06T00:22:35;25.23;;;8.30;;
65162;SDS011;51751;55.714;37.436;2023-08-06T00:25:02;20.17;;;9.27;;
65162;SDS011;51751;55.714;37.436;2023-08-06T00:27:32;22.73;;;8.05;;
65162;SDS011;51751;55.714;37.436;2023-08-06T00:29:58;22.52;;;7.55;;
65162;SDS011;51751;55.714;37.436;2023-08-06T00:32:24;20.58;;;7.47;;
65162;SDS011;51751;55.714;37.436;2023-08-06T00:34:52;19.17;;;6.45;;
65162;SDS011;51751;55.714;37.436;2023-08-06T00:37:19;25.10;;;7.68;;
65162;SDS011;51751;55.714;37.436;2023-08-06T00:39:45;19.33;;;7.60;;
65162;SDS011;51751;55.714;37.436;2023-08-06T00:42:12;27.13;;;9.13;;
65162;SDS011;51751;55.714;37.436;2023-08-06T00:44:39;20.95;;;10.00;;
65162;SDS011;51751;55.714;37.436;2023-08-06T00:47:07;28.77;;;9.32;;
65162;SDS011;51751;55.714;37.436;2023-08-06T00:49:37;18.92;;;8.82;;
65162;SDS011;51751;55.714;37.436;2023-08-06T00:52:04;27.33;;;8.73;;
65162;SDS011;51751;55.714;37.436;2023-08-06T00:54:31;14.95;;;7.18;;
65162;SDS011;51751;55.714;37.436;2023-08-06T00:56:57;18.35;;;7.65;;
65162;SDS011;51751;55.714;37.436;2023-08-06T00:59:24;13.70;;;6.78;;
65162;SDS011;51751;55.714;37.436;2023-08-06T01:01:51;19.83;;;7.28;;
65162;SDS011;51751;55.714;37.436;2023-08-06T01:04:17;22.02;;;8.90;;
65162;SDS011;51751;55.714;37.436;2023-08-06T01:06:52;19.83;;;8.40;;
65162;SDS011;51751;55.714;37.436;2023-08-06T01:09:50;27.02;;;9.95;;
65162;SDS011;51751;55.714;37.436;2023-08-06T01:15:20;22.92;;;8.23;;
65162;SDS011;51751;55.714;37.436;2023-08-06T01:17:48;19.60;;;8.60;;
65162;SDS011;51751;55.714;37.436;2023-08-06T01:20:14;17.83;;;7.95;;
65162;SDS011;51751;55.714;37.436;2023-08-06T01:22:40;20.45;;;8.05;;
65162;SDS011;51751;55.714;37.436;2023-08-06T01:25:09;16.33;;;7.15;;
65162;SDS011;51751;55.714;37.436;2023-08-06T01:27:43;12.20;;;6.75;;
65162;SDS011;51751;55.714;37.436;2023-08-06T01:30:27;18.58;;;7.75;;
65162;SDS011;51751;55.714;37.436;2023-08-06T01:32:59;17.95;;;7.68;;
65162;SDS011;51751;55.714;37.436;2023-08-06T01:35:27;18.20;;;6.60;;
65162;SDS011;51751;55.714;37.436;2023-08-06T01:37:54;19.15;;;8.80;;
65162;SDS011;51751;55.714;37.436;2023-08-06T01:40:22;23.55;;;8.77;;
65162;SDS011;51751;55.714;37.436;2023-08-06T01:42:48;32.05;;;9.85;;
65162;SDS011;51751;55.714;37.436;2023-08-06T01:45:14;23.15;;;9.38;;
65162;SDS011;51751;55.714;37.436;2023-08-06T01:47:40;25.20;;;8.88;;
65162;SDS011;51751;55.714;37.436;2023-08-06T01:50:07;24.13;;;9.55;;
65162;SDS011;51751;55.714;37.436;2023-08-06T01:52:33;25.10;;;10.52;;
65162;SDS011;51751;55.714;37.436;2023-08-06T01:54:59;36.85;;;9.82;;
65162;SDS011;51751;55.714;37.436;2023-08-06T01:57:25;25.60;;;10.95;;
65162;SDS011;51751;55.714;37.436;2023-08-06T01:59:53;22.80;;;9.60;;
65162;SDS011;51751;55.714;37.436;2023-08-06T02:02:19;23.98;;;9.73;;
65162;SDS011;51751;55.714;37.436;2023-08-06T02:04:46;21.52;;;8.70;;
65162;SDS011;51751;55.714;37.436;2023-08-06T02:07:12;21.95;;;8.43;;
65162;SDS011;51751;55.714;37.436;2023-08-06T02:09:38;20.92;;;9.43;;
65162;SDS011;51751;55.714;37.436;2023-08-06T02:12:05;21.23;;;8.90;;
65162;SDS011;51751;55.714;37.436;2023-08-06T02:14:33;19.92;;;9.45;;
65162;SDS011;51751;55.714;37.436;2023-08-06T02:17:00;26.15;;;8.73;;
65162;SDS011;51751;55.714;37.436;2023-08-06T02:19:29;16.80;;;8.63;;
65162;SDS011;51751;55.714;37.436;2023-08-06T02:21:55;18.58;;;8.20;;
65162;SDS011;51751;55.714;37.436;2023-08-06T02:24:22;21.70;;;8.57;;
65162;SDS011;51751;55.714;37.436;2023-08-06T02:26:50;17.92;;;7.95;;
65162;SDS011;51751;55.714;37.436;2023-08-06T02:29:17;15.30;;;7.35;;
65162;SDS011;51751;55.714;37.436;2023-08-06T02:31:43;14.20;;;7.80;;
65162;SDS011;51751;55.714;37.436;2023-08-06T02:34:10;20.27;;;9.27;;
65162;SDS011;51751;55.714;37.436;2023-08-06T02:36:41;24.48;;;9.10;;
65162;SDS011;51751;55.714;37.436;2023-08-06T02:39:07;21.42;;;10.60;;
65162;SDS011;51751;55.714;37.436;2023-08-06T02:41:34;20.50;;;8.88;;
65162;SDS011;51751;55.714;37.436;2023-08-06T02:44:00;16.52;;;8.10;;
65162;SDS011;51751;55.714;37.436;2023-08-06T02:46:28;16.55;;;8.18;;
65162;SDS011;51751;55.714;37.436;2023-08-06T02:48:59;18.15;;;9.90;;
65162;SDS011;51751;55.714;37.436;2023-08-06T02:51:25;19.55;;;10.57;;
65162;SDS011;51751;55.714;37.436;2023-08-06T02:53:54;20.58;;;8.50;;
65162;SDS011;51751;55.714;37.436;2023-08-06T02:56:23;20.50;;;8.70;;
65162;SDS011;51751;55.714;37.436;2023-08-06T02:59:12;25.27;;;12.18;;
65162;SDS011;51751;55.714;37.436;2023-08-06T03:01:48;17.42;;;7.25;;
65162;SDS011;51751;55.714;37.436;2023-08-06T03:04:20;16.77;;;6.90;;
65162;SDS011;51751;55.714;37.436;2023-08-06T03:06:51;13.93;;;7.00;;
65162;SDS011;51751;55.714;37.436;2023-08-06T03:09:23;15.32;;;6.72;;
65162;SDS011;51751;55.714;37.436;2023-08-06T03:11:52;20.02;;;8.57;;
65162;SDS011;51751;55.714;37.436;2023-08-06T03:14:18;17.42;;;6.95;;
65162;SDS011;51751;55.714;37.436;2023-08-06T03:16:45;19.85;;;7.50;;
65162;SDS011;51751;55.714;37.436;2023-08-06T03:19:16;17.73;;;7.05;;
65162;SDS011;51751;55.714;37.436;2023-08-06T03:21:45;15.52;;;6.35;;
65162;SDS011;51751;55.714;37.436;2023-08-06T03:24:15;12.90;;;7.25;;
65162;SDS011;51751;55.714;37.436;2023-08-06T03:26:42;12.93;;;6.40;;
65162;SDS011;51751;55.714;37.436;2023-08-06T03:29:10;13.55;;;6.07;;
65162;SDS011;51751;55.714;37.436;2023-08-06T03:31:37;14.95;;;6.55;;
65162;SDS011;51751;55.714;37.436;2023-08-06T03:34:06;11.23;;;5.60;;
65162;SDS011;51751;55.714;37.436;2023-08-06T03:36:32;14.30;;;6.13;;
65162;SDS011;51751;55.714;37.436;2023-08-06T03:38:59;14.10;;;6.72;;
65162;SDS011;51751;55.714;37.436;2023-08-06T03:41:30;14.00;;;5.78;;
65162;SDS011;51751;55.714;37.436;2023-08-06T03:43:56;11.20;;;6.15;;
65162;SDS011;51751;55.714;37.436;2023-08-06T03:46:25;11.23;;;5.88;;
65162;SDS011;51751;55.714;37.436;2023-08-06T03:48:52;11.50;;;6.40;;
65162;SDS011;51751;55.714;37.436;2023-08-06T03:51:21;13.80;;;5.90;;
65162;SDS011;51751;55.714;37.436;2023-08-06T03:53:49;13.60;;;5.75;;
65162;SDS011;51751;55.714;37.436;2023-08-06T03:56:15;13.43;;;6.07;;
65162;SDS011;51751;55.714;37.436;2023-08-06T03:58:41;14.05;;;6.10;;
65162;SDS011;51751;55.714;37.436;2023-08-06T04:01:07;12.80;;;6.47;;
65162;SDS011;51751;55.714;37.436;2023-08-06T04:03:40;14.15;;;6.03;;
65162;SDS011;51751;55.714;37.436;2023-08-06T04:06:06;12.60;;;6.93;;
65162;SDS011;51751;55.714;37.436;2023-08-06T04:08:32;12.60;;;6.15;;
65162;SDS011;51751;55.714;37.436;2023-08-06T04:11:02;12.93;;;5.55;;
65162;SDS011;51751;55.714;37.436;2023-08-06T04:13:29;9.15;;;5.82;;
65162;SDS011;51751;55.714;37.436;2023-08-06T04:16:01;11.95;;;5.80;;
65162;SDS011;51751;55.714;37.436;2023-08-06T04:18:29;14.75;;;5.32;;
65162;SDS011;51751;55.714;37.436;2023-08-06T04:20:55;19.77;;;6.57;;
65162;SDS011;51751;55.714;37.436;2023-08-06T04:23:25;16.90;;;6.32;;
65162;SDS011;51751;55.714;37.436;2023-08-06T04:25:57;12.30;;;6.10;;
65162;SDS011;51751;55.714;37.436;2023-08-06T04:28:26;15.55;;;6.30;;
65162;SDS011;51751;55.714;37.436;2023-08-06T04:30:52;18.95;;;6.25;;
65162;SDS011;51751;55.714;37.436;2023-08-06T04:33:20;14.82;;;6.10;;
65162;SDS011;51751;55.714;37.436;2023-08-06T04:35:47;15.15;;;7.07;;
65162;SDS011;51751;55.714;37.436;2023-08-06T04:38:13;11.82;;;5.55;;
65162;SDS011;51751;55.714;37.436;2023-08-06T04:40:39;10.93;;;5.68;;
65162;SDS011;51751;55.714;37.436;2023-08-06T04:43:06;10.27;;;4.75;;
65162;SDS011;51751;55.714;37.436;2023-08-06T04:45:34;12.93;;;5.80;;
65162;SDS011;51751;55.714;37.436;2023-08-06T04:48:00;13.25;;;5.32;;
65162;SDS011;51751;55.714;37.436;2023-08-06T04:50:28;10.57;;;4.82;;
65162;SDS011;51751;55.714;37.436;2023-08-06T04:52:54;11.77;;;5.03;;
65162;SDS011;51751;55.714;37.436;2023-08-06T04:55:23;11.93;;;6.28;;
65162;SDS011;51751;55.714;37.436;2023-08-06T04:57:49;9.52;;;5.20;;
65162;SDS011;51751;55.714;37.436;2023-08-06T05:00:15;11.32;;;5.20;;
65162;SDS011;51751;55.714;37.436;2023-08-06T05:02:41;15.90;;;5.13;;
65162;SDS011;51751;55.714;37.436;2023-08-06T05:05:07;9.05;;;4.95;;
65162;SDS011;51751;55.714;37.436;2023-08-06T05:07:33;11.90;;;4.75;;
65162;SDS011;51751;55.714;37.436;2023-08-06T05:09:59;8.70;;;4.40;;
65162;SDS011;51751;55.714;37.436;2023-08-06T05:12:26;10.45;;;4.68;;
65162;SDS011;51751;55.714;37.436;2023-08-06T05:14:51;11.50;;;5.00;;
65162;SDS011;51751;55.714;37.436;2023-08-06T05:17:17;13.35;;;4.75;;
65162;SDS011;51751;55.714;37.436;2023-08-06T05:19:46;10.77;;;4.78;;
65162;SDS011;51751;55.714;37.436;2023-08-06T05:22:15;10.98;;;4.50;;
65162;SDS011;51751;55.714;37.436;2023-08-06T05:24:41;8.93;;;4.70;;
65162;SDS011;51751;55.714;37.436;2023-08-06T05:27:07;15.27;;;4.55;;
65162;SDS011;51751;55.714;37.436;2023-08-06T05:29:35;7.82;;;4.10;;
65162;SDS011;51751;55.714;37.436;2023-08-06T05:32:01;10.77;;;4.35;;
65162;SDS011;51751;55.714;37.436;2023-08-06T05:34:27;11.93;;;4.43;;
65162;SDS011;51751;55.714;37.436;2023-08-06T05:36:53;10.40;;;4.53;;
65162;SDS011;51751;55.714;37.436;2023-08-06T05:39:19;8.30;;;4.05;;
65162;SDS011;51751;55.714;37.436;2023-08-06T05:41:45;9.23;;;4.50;;
65162;SDS011;51751;55.714;37.436;2023-08-06T05:44:11;8.43;;;3.92;;
65162;SDS011;51751;55.714;37.436;2023-08-06T05:46:37;6.55;;;4.10;;
65162;SDS011;51751;55.714;37.436;2023-08-06T05:49:03;9.60;;;4.65;;
65162;SDS011;51751;55.714;37.436;2023-08-06T05:51:32;8.57;;;3.90;;
65162;SDS011;51751;55.714;37.436;2023-08-06T05:53:58;11.68;;;4.05;;
65162;SDS011;51751;55.714;37.436;2023-08-06T05:56:24;7.32;;;4.00;;
65162;SDS011;51751;55.714;37.436;2023-08-06T05:58:50;10.30;;;4.40;;
65162;SDS011;51751;55.714;37.436;2023-08-06T06:01:21;10.07;;;4.78;;
65162;SDS011;51751;55.714;37.436;2023-08-06T06:03:47;9.88;;;4.10;;
65162;SDS011;51751;55.714;37.436;2023-08-06T06:06:15;9.02;;;4.10;;
65162;SDS011;51751;55.714;37.436;2023-08-06T06:08:51;9.10;;;4.28;;
65162;SDS011;51751;55.714;37.436;2023-08-06T06:11:17;8.57;;;4.00;;
65162;SDS011;51751;55.714;37.436;2023-08-06T06:13:44;8.13;;;3.80;;
65162;SDS011;51751;55.714;37.436;2023-08-06T06:16:13;10.05;;;3.80;;
65162;SDS011;51751;55.714;37.436;2023-08-06T06:18:42;8.82;;;3.63;;
65162;SDS011;51751;55.714;37.436;2023-08-06T06:21:33;9.55;;;3.80;;
65162;SDS011;51751;55.714;37.436;2023-08-06T06:24:03;8.40;;;3.40;;
65162;SDS011;51751;55.714;37.436;2023-08-06T06:26:29;9.30;;;3.35;;
65162;SDS011;51751;55.714;37.436;2023-08-06T06:28:55;7.80;;;3.40;;
65162;SDS011;51751;55.714;37.436;2023-08-06T06:31:22;8.30;;;3.70;;
65162;SDS011;51751;55.714;37.436;2023-08-06T06:33:49;7.90;;;3.40;;
65162;SDS011;51751;55.714;37.436;2023-08-06T06:36:17;11.23;;;3.70;;
65162;SDS011;51751;55.714;37.436;2023-08-06T06:38:44;12.20;;;3.40;;
65162;SDS011;51751;55.714;37.436;2023-08-06T06:41:10;9.98;;;3.28;;
65162;SDS011;51751;55.714;37.436;2023-08-06T06:43:36;7.80;;;3.47;;
65162;SDS011;51751;55.714;37.436;2023-08-06T06:46:06;12.18;;;3.40;;
65162;SDS011;51751;55.714;37.436;2023-08-06T06:48:34;7.68;;;3.55;;
65162;SDS011;51751;55.714;37.436;2023-08-06T06:51:00;6.00;;;2.92;;
65162;SDS011;51751;55.714;37.436;2023-08-06T06:53:26;6.38;;;3.53;;
65162;SDS011;51751;55.714;37.436;2023-08-06T06:56:02;7.38;;;3.65;;
65162;SDS011;51751;55.714;37.436;2023-08-06T06:58:32;9.95;;;3.47;;
65162;SDS011;51751;55.714;37.436;2023-08-06T07:01:01;8.55;;;3.65;;
65162;SDS011;51751;55.714;37.436;2023-08-06T07:03:26;8.65;;;3.70;;
65162;SDS011;51751;55.714;37.436;2023-08-06T07:05:56;13.20;;;3.88;;
65162;SDS011;51751;55.714;37.436;2023-08-06T07:08:24;18.23;;;4.13;;
65162;SDS011;51751;55.714;37.436;2023-08-06T07:10:50;10.32;;;3.88;;
65162;SDS011;51751;55.714;37.436;2023-08-06T07:13:16;10.35;;;3.70;;
65162;SDS011;51751;55.714;37.436;2023-08-06T07:15:42;8.27;;;3.92;;
65162;SDS011;51751;55.714;37.436;2023-08-06T07:18:08;9.35;;;3.90;;
65162;SDS011;51751;55.714;37.436;2023-08-06T07:20:34;6.50;;;3.50;;
65162;SDS011;51751;55.714;37.436;2023-08-06T07:23:03;7.95;;;3.58;;
65162;SDS011;51751;55.714;37.436;2023-08-06T07:25:28;11.27;;;3.72;;
65162;SDS011;51751;55.714;37.436;2023-08-06T07:27:55;12.18;;;3.50;;
65162;SDS011;51751;55.714;37.436;2023-08-06T07:30:22;11.00;;;3.90;;
65162;SDS011;51751;55.714;37.436;2023-08-06T07:32:54;9.13;;;3.63;;
65162;SDS011;51751;55.714;37.436;2023-08-06T07:35:20;7.50;;;3.30;;
65162;SDS011;51751;55.714;37.436;2023-08-06T07:37:48;10.32;;;3.78;;
65162;SDS011;51751;55.714;37.436;2023-08-06T07:40:20;10.85;;;3.72;;
65162;SDS011;51751;55.714;37.436;2023-08-06T07:42:46;7.78;;;3.75;;
65162;SDS011;51751;55.714;37.436;2023-08-06T07:45:11;11.25;;;4.25;;
65162;SDS011;51751;55.714;37.436;2023-08-06T07:47:38;8.93;;;3.70;;
65162;SDS011;51751;55.714;37.436;2023-08-06T07:50:04;8.07;;;3.85;;
65162;SDS011;51751;55.714;37.436;2023-08-06T07:52:36;11.70;;;4.05;;
65162;SDS011;51751;55.714;37.436;2023-08-06T07:55:02;9.48;;;3.90;;
65162;SDS011;51751;55.714;37.436;2023-08-06T07:57:31;9.82;;;4.40;;
65162;SDS011;51751;55.714;37.436;2023-08-06T07:59:58;21.17;;;4.13;;
65162;SDS011;51751;55.714;37.436;2023-08-06T08:02:24;11.45;;;4.38;;
65162;SDS011;51751;55.714;37.436;2023-08-06T08:04:50;10.43;;;3.97;;
65162;SDS011;51751;55.714;37.436;2023-08-06T08:07:16;7.97;;;4.32;;
65162;SDS011;51751;55.714;37.436;2023-08-06T08:09:43;11.93;;;4.10;;
65162;SDS011;51751;55.714;37.436;2023-08-06T08:12:13;12.75;;;3.90;;
65162;SDS011;51751;55.714;37.436;2023-08-06T08:14:39;7.60;;;3.80;;
65162;SDS011;51751;55.714;37.436;2023-08-06T08:17:05;10.85;;;4.10;;
65162;SDS011;51751;55.714;37.436;2023-08-06T08:19:32;10.80;;;4.15;;
65162;SDS011;51751;55.714;37.436;2023-08-06T08:21:58;7.03;;;3.90;;
65162;SDS011;51751;55.714;37.436;2023-08-06T08:24:24;11.07;;;4.18;;
65162;SDS011;51751;55.714;37.436;2023-08-06T08:26:50;10.88;;;3.80;;
65162;SDS011;51751;55.714;37.436;2023-08-06T08:29:17;10.80;;;4.00;;
65162;SDS011;51751;55.714;37.436;2023-08-06T08:31:43;16.05;;;4.20;;
65162;SDS011;51751;55.714;37.436;2023-08-06T08:34:12;6.40;;;3.65;;
65162;SDS011;51751;55.714;37.436;2023-08-06T08:36:38;7.15;;;3.70;;
65162;SDS011;51751;55.714;37.436;2023-08-06T08:39:04;9.82;;;3.83;;
65162;SDS011;51751;55.714;37.436;2023-08-06T08:41:30;8.40;;;3.60;;
65162;SDS011;51751;55.714;37.436;2023-08-06T08:43:58;8.40;;;3.40;;
65162;SDS011;51751;55.714;37.436;2023-08-06T08:46:29;8.05;;;3.72;;
65162;SDS011;51751;55.714;37.436;2023-08-06T08:48:56;12.50;;;4.00;;
65162;SDS011;51751;55.714;37.436;2023-08-06T08:51:22;8.30;;;4.13;;
65162;SDS011;51751;55.714;37.436;2023-08-06T08:53:48;6.60;;;3.47;;
65162;SDS011;51751;55.714;37.436;2023-08-06T08:56:15;9.32;;;3.97;;
65162;SDS011;51751;55.714;37.436;2023-08-06T08:58:41;11.75;;;4.20;;
65162;SDS011;51751;55.714;37.436;2023-08-06T09:01:07;9.50;;;3.90;;
65162;SDS011;51751;55.714;37.436;2023-08-06T09:03:33;9.85;;;4.30;;
65162;SDS011;51751;55.714;37.436;2023-08-06T09:05:59;8.25;;;4.05;;
65162;SDS011;51751;55.714;37.436;2023-08-06T09:08:31;7.10;;;4.00;;
65162;SDS011;51751;55.714;37.436;2023-08-06T09:11:00;9.88;;;3.85;;
65162;SDS011;51751;55.714;37.436;2023-08-06T09:13:26;6.95;;;3.50;;
65162;SDS011;51751;55.714;37.436;2023-08-06T09:15:52;7.97;;;4.05;;
65162;SDS011;51751;55.714;37.436;2023-08-06T09:18:29;6.95;;;3.92;;
65162;SDS011;51751;55.714;37.436;2023-08-06T09:20:56;9.38;;;3.88;;
65162;SDS011;51751;55.714;37.436;2023-08-06T09:23:30;11.82;;;4.07;;
65162;SDS011;51751;55.714;37.436;2023-08-06T09:25:57;9.07;;;4.07;;
65162;SDS011;51751;55.714;37.436;2023-08-06T09:28:37;11.82;;;4.03;;
65162;SDS011;51751;55.714;37.436;2023-08-06T09:31:04;11.10;;;4.00;;
65162;SDS011;51751;55.714;37.436;2023-08-06T09:33:30;10.88;;;3.67;;
65162;SDS011;51751;55.714;37.436;2023-08-06T09:35:56;9.68;;;4.03;;
65162;SDS011;51751;55.714;37.436;2023-08-06T09:38:22;7.70;;;3.80;;
65162;SDS011;51751;55.714;37.436;2023-08-06T09:40:49;9.45;;;4.50;;
65162;SDS011;51751;55.714;37.436;2023-08-06T09:43:15;8.52;;;3.70;;
65162;SDS011;51751;55.714;37.436;2023-08-06T09:45:43;6.30;;;3.78;;
65162;SDS011;51751;55.714;37.436;2023-08-06T09:48:12;8.40;;;3.85;;
65162;SDS011;51751;55.714;37.436;2023-08-06T09:50:38;9.70;;;4.20;;
65162;SDS011;51751;55.714;37.436;2023-08-06T09:53:05;6.45;;;4.20;;
65162;SDS011;51751;55.714;37.436;2023-08-06T09:55:32;7.63;;;3.85;;
65162;SDS011;51751;55.714;37.436;2023-08-06T09:58:00;9.93;;;4.07;;
65162;SDS011;51751;55.714;37.436;2023-08-06T10:00:26;8.73;;;4.25;;
65162;SDS011;51751;55.714;37.436;2023-08-06T10:02:59;10.05;;;4.35;;
65162;SDS011;51751;55.714;37.436;2023-08-06T10:05:26;11.18;;;4.28;;
65162;SDS011;51751;55.714;37.436;2023-08-06T10:07:53;8.38;;;3.88;;
65162;SDS011;51751;55.714;37.436;2023-08-06T10:10:21;11.02;;;4.15;;
65162;SDS011;51751;55.714;37.436;2023-08-06T10:12:49;6.95;;;3.92;;
65162;SDS011;51751;55.714;37.436;2023-08-06T10:15:16;10.40;;;4.10;;
65162;SDS011;51751;55.714;37.436;2023-08-06T10:17:45;8.27;;;4.22;;
65162;SDS011;51751;55.714;37.436;2023-08-06T10:20:13;8.70;;;4.32;;
65162;SDS011;51751;55.714;37.436;2023-08-06T10:22:44;13.07;;;4.20;;
65162;SDS011;51751;55.714;37.436;2023-08-06T10:25:10;17.65;;;4.10;;
65162;SDS011;51751;55.714;37.436;2023-08-06T10:27:54;8.32;;;4.10;;
65162;SDS011;51751;55.714;37.436;2023-08-06T10:30:27;10.55;;;4.32;;
65162;SDS011;51751;55.714;37.436;2023-08-06T10:32:58;13.07;;;4.43;;
65162;SDS011;51751;55.714;37.436;2023-08-06T10:35:38;5.95;;;4.05;;
65162;SDS011;51751;55.714;37.436;2023-08-06T10:41:00;8.82;;;3.75;;
65162;SDS011;51751;55.714;37.436;2023-08-06T10:43:34;6.45;;;3.75;;
65162;SDS011;51751;55.714;37.436;2023-08-06T10:46:04;8.88;;;4.10;;
65162;SDS011;51751;55.714;37.436;2023-08-06T10:48:35;9.48;;;3.67;;
65162;SDS011;51751;55.714;37.436;2023-08-06T10:51:12;9.27;;;4.05;;
65162;SDS011;51751;55.714;37.436;2023-08-06T10:53:48;8.38;;;4.20;;
65162;SDS011;51751;55.714;37.436;2023-08-06T10:56:18;5.65;;;3.92;;
65162;SDS011;51751;55.714;37.436;2023-08-06T10:58:48;9.90;;;4.20;;
65162;SDS011;51751;55.714;37.436;2023-08-06T11:01:15;9.60;;;4.15;;
65162;SDS011;51751;55.714;37.436;2023-08-06T11:03:42;8.63;;;4.07;;
65162;SDS011;51751;55.714;37.436;2023-08-06T11:06:11;9.57;;;4.32;;
65162;SDS011;51751;55.714;37.436;2023-08-06T11:08:38;12.10;;;4.07;;
65162;SDS011;51751;55.714;37.436;2023-08-06T11:11:12;6.22;;;3.80;;
65162;SDS011;51751;55.714;37.436;2023-08-06T11:13:40;8.17;;;4.40;;
65162;SDS011;51751;55.714;37.436;2023-08-06T11:16:06;7.15;;;4.18;;
65162;SDS011;51751;55.714;37.436;2023-08-06T11:18:32;8.55;;;4.10;;
65162;SDS011;51751;55.714;37.436;2023-08-06T11:20:59;10.35;;;4.00;;
65162;SDS011;51751;55.714;37.436;2023-08-06T11:23:26;8.43;;;4.28;;
65162;SDS011;51751;55.714;37.436;2023-08-06T11:25:57;13.13;;;4.28;;
65162;SDS011;51751;55.714;37.436;2023-08-06T11:28:24;11.10;;;4.40;;
65162;SDS011;51751;55.714;37.436;2023-08-06T11:30:50;7.13;;;4.18;;
65162;SDS011;51751;55.714;37.436;2023-08-06T11:33:21;8.25;;;3.92;;
65162;SDS011;51751;55.714;37.436;2023-08-06T11:36:11;10.85;;;4.05;;
65162;SDS011;51751;55.714;37.436;2023-08-06T11:38:37;9.02;;;4.20;;
65162;SDS011;51751;55.714;37.436;2023-08-06T11:41:08;13.00;;;4.28;;
65162;SDS011;51751;55.714;37.436;2023-08-06T11:43:34;9.57;;;4.15;;
65162;SDS011;51751;55.714;37.436;2023-08-06T11:46:03;10.68;;;4.40;;
65162;SDS011;51751;55.714;37.436;2023-08-06T11:48:29;11.05;;;3.90;;
65162;SDS011;51751;55.714;37.436;2023-08-06T11:50:55;7.57;;;4.40;;
65162;SDS011;51751;55.714;37.436;2023-08-06T11:53:26;8.40;;;3.97;;
65162;SDS011;51751;55.714;37.436;2023-08-06T11:55:56;7.53;;;4.30;;
65162;SDS011;51751;55.714;37.436;2023-08-06T11:58:22;9.90;;;4.25;;
65162;SDS011;51751;55.714;37.436;2023-08-06T12:00:48;7.97;;;4.18;;
65162;SDS011;51751;55.714;37.436;2023-08-06T12:03:13;9.88;;;4.25;;
65162;SDS011;51751;55.714;37.436;2023-08-06T12:05:39;16.35;;;4.30;;
65162;SDS011;51751;55.714;37.436;2023-08-06T12:08:06;11.20;;;4.10;;
65162;SDS011;51751;55.714;37.436;2023-08-06T12:10:32;8.75;;;4.00;;
65162;SDS011;51751;55.714;37.436;2023-08-06T12:13:01;10.13;;;4.03;;
65162;SDS011;51751;55.714;37.436;2023-08-06T12:15:30;10.15;;;4.28;;
65162;SDS011;51751;55.714;37.436;2023-08-06T12:17:56;8.95;;;4.00;;
65162;SDS011;51751;55.714;37.436;2023-08-06T12:20:22;9.35;;;4.50;;
65162;SDS011;51751;55.714;37.436;2023-08-06T12:22:54;11.10;;;4.00;;
65162;SDS011;51751;55.714;37.436;2023-08-06T12:25:19;7.00;;;3.88;;
65162;SDS011;51751;55.714;37.436;2023-08-06T12:27:46;6.22;;;3.83;;
65162;SDS011;51751;55.714;37.436;2023-08-06T12:30:12;5.38;;;3.67;;
65162;SDS011;51751;55.714;37.436;2023-08-06T12:32:38;6.45;;;3.90;;
65162;SDS011;51751;55.714;37.436;2023-08-06T12:35:05;6.38;;;3.70;;
65162;SDS011;51751;55.714;37.436;2023-08-06T12:37:34;14.32;;;4.32;;
65162;SDS011;51751;55.714;37.436;2023-08-06T12:40:02;11.55;;;4.20;;
65162;SDS011;51751;55.714;37.436;2023-08-06T12:42:31;11.65;;;3.95;;
65162;SDS011;51751;55.714;37.436;2023-08-06T12:44:57;8.25;;;4.10;;
65162;SDS011;51751;55.714;37.436;2023-08-06T12:47:25;9.05;;;3.95;;
65162;SDS011;51751;55.714;37.436;2023-08-06T12:49:51;9.23;;;3.85;;
65162;SDS011;51751;55.714;37.436;2023-08-06T12:52:20;10.30;;;3.88;;
65162;SDS011;51751;55.714;37.436;2023-08-06T12:54:47;6.03;;;3.90;;
65162;SDS011;51751;55.714;37.436;2023-08-06T12:57:13;8.13;;;3.72;;
65162;SDS011;51751;55.714;37.436;2023-08-06T12:59:43;8.35;;;3.75;;
65162;SDS011;51751;55.714;37.436;2023-08-06T13:02:09;9.55;;;4.03;;
65162;SDS011;51751;55.714;37.436;2023-08-06T13:04:36;5.03;;;4.00;;
65162;SDS011;51751;55.714;37.436;2023-08-06T13:07:02;6.47;;;3.90;;
65162;SDS011;51751;55.714;37.436;2023-08-06T13:09:27;5.97;;;3.83;;
65162;SDS011;51751;55.714;37.436;2023-08-06T13:11:53;9.55;;;4.30;;
65162;SDS011;51751;55.714;37.436;2023-08-06T13:14:19;10.88;;;4.00;;
65162;SDS011;51751;55.714;37.436;2023-08-06T13:16:46;7.80;;;3.95;;
65162;SDS011;51751;55.714;37.436;2023-08-06T13:19:12;12.07;;;4.20;;
65162;SDS011;51751;55.714;37.436;2023-08-06T13:24:07;7.53;;;3.95;;
65162;SDS011;51751;55.714;37.436;2023-08-06T13:26:39;15.75;;;4.10;;
65162;SDS011;51751;55.714;37.436;2023-08-06T13:29:05;8.38;;;3.80;;
65162;SDS011;51751;55.714;37.436;2023-08-06T13:31:33;10.45;;;3.95;;
65162;SDS011;51751;55.714;37.436;2023-08-06T13:33:59;7.30;;;3.72;;
65162;SDS011;51751;55.714;37.436;2023-08-06T13:36:26;11.32;;;4.03;;
65162;SDS011;51751;55.714;37.436;2023-08-06T13:38:56;6.35;;;3.80;;
65162;SDS011;51751;55.714;37.436;2023-08-06T13:41:25;10.68;;;4.15;;
65162;SDS011;51751;55.714;37.436;2023-08-06T13:43:54;11.18;;;4.20;;
65162;SDS011;51751;55.714;37.436;2023-08-06T13:46:20;12.85;;;4.05;;
65162;SDS011;51751;55.714;37.436;2023-08-06T13:48:46;8.43;;;4.10;;
65162;SDS011;51751;55.714;37.436;2023-08-06T13:51:16;7.43;;;4.10;;
65162;SDS011;51751;55.714;37.436;2023-08-06T13:53:44;5.63;;;3.90;;
65162;SDS011;51751;55.714;37.436;2023-08-06T13:56:11;6.70;;;3.95;;
65162;SDS011;51751;55.714;37.436;2023-08-06T13:58:38;8.38;;;4.05;;
65162;SDS011;51751;55.714;37.436;2023-08-06T14:01:09;12.68;;;3.90;;
65162;SDS011;51751;55.714;37.436;2023-08-06T14:03:36;6.38;;;3.70;;
65162;SDS011;51751;55.714;37.436;2023-08-06T14:06:02;7.47;;;3.78;;
65162;SDS011;51751;55.714;37.436;2023-08-06T14:08:29;7.93;;;4.03;;
65162;SDS011;51751;55.714;37.436;2023-08-06T14:10:55;10.88;;;3.90;;
65162;SDS011;51751;55.714;37.436;2023-08-06T14:13:21;5.35;;;3.70;;
65162;SDS011;51751;55.714;37.436;2023-08-06T14:15:47;8.57;;;3.70;;
65162;SDS011;51751;55.714;37.436;2023-08-06T14:18:16;7.22;;;3.85;;
65162;SDS011;51751;55.714;37.436;2023-08-06T14:20:48;6.40;;;3.80;;
65162;SDS011;51751;55.714;37.436;2023-08-06T14:23:14;8.80;;;3.72;;
65162;SDS011;51751;55.714;37.436;2023-08-06T14:25:40;9.70;;;3.97;;
65162;SDS011;51751;55.714;37.436;2023-08-06T14:28:06;7.00;;;4.10;;
65162;SDS011;51751;55.714;37.436;2023-08-06T14:30:35;6.85;;;3.67;;
65162;SDS011;51751;55.714;37.436;2023-08-06T14:33:02;10.25;;;3.92;;
65162;SDS011;51751;55.714;37.436;2023-08-06T14:35:28;13.98;;;4.25;;
65162;SDS011;51751;55.714;37.436;2023-08-06T14:37:54;10.95;;;4.20;;